Terminal Aerodrome Forecast
Issued by NWS Cleveland, OH

Home | Current Version | Previous Version | Text Only | Print | Product List | Glossary On
Versions: 1 2 3 4 5 6 7 8 9 10 11 12 13 14 15 16 17 18 19 20 21 22 23 24 25 26 27 28
000
FTUS41 KCLE 261139
TAFCLE
TAF
KCLE 261139Z 2612/2718 25010KT P6SM -SHSN OVC040
      TEMPO 2612/2613 5SM -SHSN
     FM261700 23012KT P6SM SCT040
     FM262000 21015G25KT P6SM SCT035 BKN100
     FM270400 21012KT P6SM SCT070 WS020/26045KT
     FM271200 20010KT P6SM BKN040=

USA.gov is the U.S. government's official web portal to all federal, state and local government web resources and services.